Aviation Digital Data Service (ADDS)

Output produced by METARs form (1138 UTC 19 February 2019)
found at http://www.aviationweather.gov/metar/data/
 
Forecast for: RJFR (KITAKYUSHU/KOKUR, JP)
Text: TAF RJFR 191109Z 1912/2018 29012KT 9999 FEW015 SCT020 BKN025
Forecast period: 1200 UTC 19 February 2019 to 1800 UTC 20 February 2019
Forecast type: FROM: standard forecast or significant change
Winds: from the WNW (290 degrees) at 14 MPH (12 knots; 6.2 m/s)
Visibility: 6 or more miles 10+ km)
Ceiling: 2500 feet AGL
Clouds: few clouds at 1500 feet AGL
scattered clouds at 2000 feet AGL
broken clouds at 2500 feet AGL
Weather: no significant weather forecast for this period